sensor_id;sensor_type;location;lat;lon;timestamp;pressure;altitude;pressure_sealevel;temperature;humidity
16451;BME280;12243;42.708;23.310;2024-03-02T00:02:16;94458.72;;;8.78;100.00
16451;BME280;12243;42.708;23.310;2024-03-02T00:04:44;94458.06;;;8.76;100.00
16451;BME280;12243;42.708;23.310;2024-03-02T00:07:14;94467.63;;;8.75;100.00
16451;BME280;12243;42.708;23.310;2024-03-02T00:09:41;94464.47;;;8.72;100.00
16451;BME280;12243;42.708;23.310;2024-03-02T00:12:10;94468.97;;;8.70;100.00
16451;BME280;12243;42.708;23.310;2024-03-02T00:14:38;94461.59;;;8.75;100.00
16451;BME280;12243;42.708;23.310;2024-03-02T00:17:05;94472.41;;;8.80;100.00
16451;BME280;12243;42.708;23.310;2024-03-02T00:19:38;94459.44;;;8.80;100.00
16451;BME280;12243;42.708;23.310;2024-03-02T00:22:06;94458.56;;;8.70;100.00
16451;BME280;12243;42.708;23.310;2024-03-02T00:24:35;94465.84;;;8.76;100.00
16451;BME280;12243;42.708;23.310;2024-03-02T00:27:03;94461.16;;;8.70;100.00
16451;BME280;12243;42.708;23.310;2024-03-02T00:29:30;94452.88;;;8.76;100.00
16451;BME280;12243;42.708;23.310;2024-03-02T00:31:58;94464.78;;;8.88;100.00
16451;BME280;12243;42.708;23.310;2024-03-02T00:34:25;94471.75;;;8.88;100.00
16451;BME280;12243;42.708;23.310;2024-03-02T00:36:52;94462.63;;;8.93;100.00
16451;BME280;12243;42.708;23.310;2024-03-02T00:39:18;94458.25;;;8.94;100.00
16451;BME280;12243;42.708;23.310;2024-03-02T00:41:47;94456.63;;;9.02;100.00
16451;BME280;12243;42.708;23.310;2024-03-02T00:44:15;94442.13;;;8.90;100.00
16451;BME280;12243;42.708;23.310;2024-03-02T00:46:42;94446.72;;;8.77;100.00
16451;BME280;12243;42.708;23.310;2024-03-02T00:49:12;94448.59;;;8.75;100.00
16451;BME280;12243;42.708;23.310;2024-03-02T00:51:46;94447.47;;;8.58;100.00
16451;BME280;12243;42.708;23.310;2024-03-02T00:54:14;94438.47;;;8.62;100.00
16451;BME280;12243;42.708;23.310;2024-03-02T00:56:42;94438.16;;;8.55;100.00
16451;BME280;12243;42.708;23.310;2024-03-02T00:59:11;94437.09;;;8.58;100.00
16451;BME280;12243;42.708;23.310;2024-03-02T01:01:38;94434.59;;;8.56;100.00
16451;BME280;12243;42.708;23.310;2024-03-02T01:04:05;94438.72;;;8.59;100.00
16451;BME280;12243;42.708;23.310;2024-03-02T01:06:32;94437.09;;;8.58;100.00
16451;BME280;12243;42.708;23.310;2024-03-02T01:08:59;94437.38;;;8.65;100.00
16451;BME280;12243;42.708;23.310;2024-03-02T01:11:26;94447.50;;;8.68;100.00
16451;BME280;12243;42.708;23.310;2024-03-02T01:13:53;94448.59;;;8.65;100.00
16451;BME280;12243;42.708;23.310;2024-03-02T01:16:21;94440.81;;;8.75;100.00
16451;BME280;12243;42.708;23.310;2024-03-02T01:18:48;94440.16;;;8.73;100.00
16451;BME280;12243;42.708;23.310;2024-03-02T01:21:15;94425.16;;;8.86;100.00
16451;BME280;12243;42.708;23.310;2024-03-02T01:23:42;94432.25;;;8.84;100.00
16451;BME280;12243;42.708;23.310;2024-03-02T01:26:09;94435.28;;;8.89;100.00
16451;BME280;12243;42.708;23.310;2024-03-02T01:28:36;94428.31;;;8.90;100.00
16451;BME280;12243;42.708;23.310;2024-03-02T01:31:03;94422.19;;;9.00;100.00
16451;BME280;12243;42.708;23.310;2024-03-02T01:33:31;94429.56;;;9.05;100.00
16451;BME280;12243;42.708;23.310;2024-03-02T01:35:58;94419.72;;;8.89;100.00
16451;BME280;12243;42.708;23.310;2024-03-02T01:38:25;94417.63;;;8.83;100.00
16451;BME280;12243;42.708;23.310;2024-03-02T01:40:54;94419.41;;;8.82;100.00
16451;BME280;12243;42.708;23.310;2024-03-02T01:43:22;94415.56;;;8.77;100.00
16451;BME280;12243;42.708;23.310;2024-03-02T01:45:49;94412.56;;;8.72;100.00
16451;BME280;12243;42.708;23.310;2024-03-02T01:48:15;94409.22;;;8.60;100.00
16451;BME280;12243;42.708;23.310;2024-03-02T01:50:44;94407.78;;;8.46;100.00
16451;BME280;12243;42.708;23.310;2024-03-02T01:53:11;94402.34;;;8.49;100.00
16451;BME280;12243;42.708;23.310;2024-03-02T01:55:38;94406.06;;;8.35;100.00
16451;BME280;12243;42.708;23.310;2024-03-02T01:58:04;94406.91;;;8.36;100.00
16451;BME280;12243;42.708;23.310;2024-03-02T02:00:32;94404.66;;;8.22;100.00
16451;BME280;12243;42.708;23.310;2024-03-02T02:02:59;94406.03;;;8.26;100.00
16451;BME280;12243;42.708;23.310;2024-03-02T02:05:26;94413.13;;;8.24;100.00
16451;BME280;12243;42.708;23.310;2024-03-02T02:07:54;94404.38;;;8.25;100.00
16451;BME280;12243;42.708;23.310;2024-03-02T07:41:27;94513.13;;;9.10;100.00
16451;BME280;12243;42.708;23.310;2024-03-02T07:43:53;94520.63;;;9.03;100.00
16451;BME280;12243;42.708;23.310;2024-03-02T07:46:20;94518.44;;;9.09;100.00
16451;BME280;12243;42.708;23.310;2024-03-02T07:48:47;94523.78;;;9.07;100.00
16451;BME280;12243;42.708;23.310;2024-03-02T07:51:17;94518.38;;;8.89;100.00
16451;BME280;12243;42.708;23.310;2024-03-02T07:53:44;94521.09;;;8.88;100.00
16451;BME280;12243;42.708;23.310;2024-03-02T07:56:11;94522.97;;;8.76;100.00
16451;BME280;12243;42.708;23.310;2024-03-02T07:58:39;94518.34;;;8.79;100.00
16451;BME280;12243;42.708;23.310;2024-03-02T08:01:07;94524.97;;;8.93;100.00
16451;BME280;12243;42.708;23.310;2024-03-02T08:03:34;94526.28;;;8.88;100.00
16451;BME280;12243;42.708;23.310;2024-03-02T08:06:01;94529.53;;;8.80;100.00
16451;BME280;12243;42.708;23.310;2024-03-02T08:08:28;94529.44;;;8.91;100.00
16451;BME280;12243;42.708;23.310;2024-03-02T08:10:55;94532.31;;;8.88;100.00
16451;BME280;12243;42.708;23.310;2024-03-02T08:13:22;94529.19;;;8.94;100.00
16451;BME280;12243;42.708;23.310;2024-03-02T08:15:50;94530.88;;;9.05;100.00
16451;BME280;12243;42.708;23.310;2024-03-02T08:18:18;94531.22;;;9.21;100.00
16451;BME280;12243;42.708;23.310;2024-03-02T08:20:45;94532.69;;;9.24;100.00
16451;BME280;12243;42.708;23.310;2024-03-02T08:23:12;94531.91;;;9.33;100.00
16451;BME280;12243;42.708;23.310;2024-03-02T08:25:39;94529.75;;;9.38;100.00
16451;BME280;12243;42.708;23.310;2024-03-02T08:28:06;94526.63;;;9.44;100.00
16451;BME280;12243;42.708;23.310;2024-03-02T08:30:33;94532.25;;;9.49;100.00
16451;BME280;12243;42.708;23.310;2024-03-02T08:33:01;94525.69;;;9.65;100.00
16451;BME280;12243;42.708;23.310;2024-03-02T08:35:28;94523.78;;;9.67;100.00
16451;BME280;12243;42.708;23.310;2024-03-02T08:37:57;94525.16;;;9.71;100.00
16451;BME280;12243;42.708;23.310;2024-03-02T08:40:24;94525.69;;;9.65;100.00
16451;BME280;12243;42.708;23.310;2024-03-02T08:42:51;94523.53;;;9.70;100.00
16451;BME280;12243;42.708;23.310;2024-03-02T08:45:19;94528.72;;;9.79;100.00
16451;BME280;12243;42.708;23.310;2024-03-02T08:47:46;94530.94;;;9.84;100.00
16451;BME280;12243;42.708;23.310;2024-03-02T08:50:15;94529.69;;;9.88;100.00
16451;BME280;12243;42.708;23.310;2024-03-02T08:52:42;94526.81;;;10.11;100.00
16451;BME280;12243;42.708;23.310;2024-03-02T08:55:09;94524.69;;;10.25;100.00
16451;BME280;12243;42.708;23.310;2024-03-02T08:57:36;94524.38;;;10.38;100.00
16451;BME280;12243;42.708;23.310;2024-03-02T09:00:04;94534.22;;;10.64;100.00
16451;BME280;12243;42.708;23.310;2024-03-02T09:02:34;94526.22;;;10.75;100.00
16451;BME280;12243;42.708;23.310;2024-03-02T09:05:01;94529.19;;;10.90;100.00
16451;BME280;12243;42.708;23.310;2024-03-02T09:07:29;94526.38;;;11.11;100.00
16451;BME280;12243;42.708;23.310;2024-03-02T09:09:56;94528.22;;;11.28;100.00
16451;BME280;12243;42.708;23.310;2024-03-02T09:12:23;94529.25;;;11.45;100.00
16451;BME280;12243;42.708;23.310;2024-03-02T09:14:50;94532.38;;;11.49;100.00
16451;BME280;12243;42.708;23.310;2024-03-02T09:17:17;94538.38;;;11.59;100.00
16451;BME280;12243;42.708;23.310;2024-03-02T09:19:44;94539.56;;;11.64;100.00
16451;BME280;12243;42.708;23.310;2024-03-02T09:22:11;94546.84;;;11.88;100.00
16451;BME280;12243;42.708;23.310;2024-03-02T09:24:39;94540.09;;;11.68;100.00
16451;BME280;12243;42.708;23.310;2024-03-02T09:27:06;94543.38;;;11.70;100.00
16451;BME280;12243;42.708;23.310;2024-03-02T09:29:32;94544.09;;;11.62;100.00
16451;BME280;12243;42.708;23.310;2024-03-02T09:31:59;94544.63;;;11.38;100.00
16451;BME280;12243;42.708;23.310;2024-03-02T09:34:26;94547.34;;;11.47;100.00
16451;BME280;12243;42.708;23.310;2024-03-02T09:36:53;94550.44;;;11.32;100.00
16451;BME280;12243;42.708;23.310;2024-03-02T09:39:20;94545.22;;;11.32;100.00
16451;BME280;12243;42.708;23.310;2024-03-02T09:41:48;94549.84;;;11.38;100.00
16451;BME280;12243;42.708;23.310;2024-03-02T09:44:15;94549.84;;;11.38;100.00
16451;BME280;12243;42.708;23.310;2024-03-02T09:46:42;94550.88;;;11.55;100.00
16451;BME280;12243;42.708;23.310;2024-03-02T09:49:10;94554.06;;;11.49;100.00
16451;BME280;12243;42.708;23.310;2024-03-02T09:51:37;94547.56;;;11.53;100.00
16451;BME280;12243;42.708;23.310;2024-03-02T09:54:04;94543.50;;;11.51;100.00
16451;BME280;12243;42.708;23.310;2024-03-02T09:56:33;94553.72;;;11.62;100.00
16451;BME280;12243;42.708;23.310;2024-03-02T09:59:02;94547.53;;;11.63;100.00
16451;BME280;12243;42.708;23.310;2024-03-02T10:01:30;94551.69;;;11.56;100.00
16451;BME280;12243;42.708;23.310;2024-03-02T10:03:59;94550.06;;;11.55;100.00
16451;BME280;12243;42.708;23.310;2024-03-02T10:06:27;94553.03;;;11.60;100.00
16451;BME280;12243;42.708;23.310;2024-03-02T10:08:55;94546.66;;;11.72;100.00
16451;BME280;12243;42.708;23.310;2024-03-02T10:11:26;94547.44;;;11.82;100.00
16451;BME280;12243;42.708;23.310;2024-03-02T10:14:06;94549.06;;;11.83;100.00
16451;BME280;12243;42.708;23.310;2024-03-02T10:16:37;94544.44;;;11.77;100.00
16451;BME280;12243;42.708;23.310;2024-03-02T10:19:17;94545.63;;;11.83;100.00
16451;BME280;12243;42.708;23.310;2024-03-02T10:21:45;94542.03;;;11.66;100.00
16451;BME280;12243;42.708;23.310;2024-03-02T10:24:12;94546.66;;;11.72;100.00
16451;BME280;12243;42.708;23.310;2024-03-02T10:26:39;94541.50;;;11.62;100.00
16451;BME280;12243;42.708;23.310;2024-03-02T10:29:09;94538.50;;;11.57;100.00
16451;BME280;12243;42.708;23.310;2024-03-02T10:31:37;94543.78;;;11.48;100.00
16451;BME280;12243;42.708;23.310;2024-03-02T10:34:04;94549.28;;;11.44;100.00
16451;BME280;12243;42.708;23.310;2024-03-02T10:36:32;94543.00;;;11.37;100.00
16451;BME280;12243;42.708;23.310;2024-03-02T10:39:02;94545.91;;;11.34;100.00
16451;BME280;12243;42.708;23.310;2024-03-02T10:41:31;94545.22;;;11.32;100.00
16451;BME280;12243;42.708;23.310;2024-03-02T10:43:59;94543.56;;;11.31;100.00
16451;BME280;12243;42.708;23.310;2024-03-02T10:46:29;94543.88;;;11.28;100.00
16451;BME280;12243;42.708;23.310;2024-03-02T10:48:56;94536.72;;;11.30;100.00
16451;BME280;12243;42.708;23.310;2024-03-02T10:51:24;94537.31;;;11.24;100.00
16451;BME280;12243;42.708;23.310;2024-03-02T10:53:51;94537.59;;;11.21;100.00
16451;BME280;12243;42.708;23.310;2024-03-02T10:56:22;94533.53;;;11.09;100.00
16451;BME280;12243;42.708;23.310;2024-03-02T10:58:56;94532.69;;;11.08;100.00
16451;BME280;12243;42.708;23.310;2024-03-02T11:01:25;94531.69;;;11.19;100.00
16451;BME280;12243;42.708;23.310;2024-03-02T11:03:55;94529.19;;;11.27;100.00
16451;BME280;12243;42.708;23.310;2024-03-02T11:06:23;94536.00;;;11.38;100.00
16451;BME280;12243;42.708;23.310;2024-03-02T11:08:55;94522.44;;;11.34;100.00
16451;BME280;12243;42.708;23.310;2024-03-02T11:11:30;94532.56;;;11.37;100.00
16451;BME280;12243;42.708;23.310;2024-03-02T11:14:02;94536.03;;;11.28;100.00
16451;BME280;12243;42.708;23.310;2024-03-02T11:16:35;94529.84;;;11.29;100.00
16451;BME280;12243;42.708;23.310;2024-03-02T11:19:05;94526.03;;;11.33;100.00
16451;BME280;12243;42.708;23.310;2024-03-02T11:21:33;94529.00;;;11.38;100.00
16451;BME280;12243;42.708;23.310;2024-03-02T11:24:01;94527.59;;;11.44;100.00
16451;BME280;12243;42.708;23.310;2024-03-02T11:26:47;94527.13;;;11.31;100.00
16451;BME280;12243;42.708;23.310;2024-03-02T11:29:42;94522.81;;;11.39;100.00
16451;BME280;12243;42.708;23.310;2024-03-02T11:32:13;94525.63;;;11.56;100.00
16451;BME280;12243;42.708;23.310;2024-03-02T11:34:44;94521.09;;;11.58;100.00
16451;BME280;12243;42.708;23.310;2024-03-02T11:37:12;94522.44;;;11.62;100.00
16451;BME280;12243;42.708;23.310;2024-03-02T11:39:40;94513.81;;;11.79;100.00
16451;BME280;12243;42.708;23.310;2024-03-02T11:42:07;94517.06;;;11.81;100.00
16451;BME280;12243;42.708;23.310;2024-03-02T11:44:35;94524.91;;;11.81;100.00
16451;BME280;12243;42.708;23.310;2024-03-02T11:47:06;94520.16;;;11.95;100.00
16451;BME280;12243;42.708;23.310;2024-03-02T11:49:36;94519.50;;;11.93;100.00
16451;BME280;12243;42.708;23.310;2024-03-02T11:52:07;94520.22;;;11.85;100.00
16451;BME280;12243;42.708;23.310;2024-03-02T11:54:36;94516.41;;;11.79;100.00
16451;BME280;12243;42.708;23.310;2024-03-02T11:57:05;94513.13;;;11.77;100.00
16451;BME280;12243;42.708;23.310;2024-03-02T11:59:33;94516.41;;;11.79;100.00
16451;BME280;12243;42.708;23.310;2024-03-02T12:02:00;94515.66;;;11.69;100.00
16451;BME280;12243;42.708;23.310;2024-03-02T12:04:27;94512.34;;;11.67;100.00
16451;BME280;12243;42.708;23.310;2024-03-02T12:06:58;94516.69;;;11.76;100.00
16451;BME280;12243;42.708;23.310;2024-03-02T12:09:28;94515.66;;;11.69;100.00
16451;BME280;12243;42.708;23.310;2024-03-02T12:12:02;94514.31;;;11.65;100.00
16451;BME280;12243;42.708;23.310;2024-03-02T12:14:31;94520.59;;;11.72;100.00
16451;BME280;12243;42.708;23.310;2024-03-02T12:16:58;94514.22;;;11.75;100.00
16451;BME280;12243;42.708;23.310;2024-03-02T12:19:25;94522.03;;;11.84;100.00
16451;BME280;12243;42.708;23.310;2024-03-02T12:21:51;94519.41;;;11.84;100.00
16451;BME280;12243;42.708;23.310;2024-03-02T12:24:19;94519.44;;;11.75;100.00
16451;BME280;12243;42.708;23.310;2024-03-02T12:26:47;94517.28;;;11.70;100.00
16451;BME280;12243;42.708;23.310;2024-03-02T12:29:14;94512.88;;;11.71;100.00
16451;BME280;12243;42.708;23.310;2024-03-02T12:31:42;94515.25;;;11.64;100.00
16451;BME280;12243;42.708;23.310;2024-03-02T12:34:12;94511.09;;;11.71;100.00
16451;BME280;12243;42.708;23.310;2024-03-02T12:36:39;94512.06;;;11.70;100.00
16451;BME280;12243;42.708;23.310;2024-03-02T12:39:07;94509.53;;;11.78;100.00
16451;BME280;12243;42.708;23.310;2024-03-02T12:41:36;94508.47;;;11.71;100.00
16451;BME280;12243;42.708;23.310;2024-03-02T12:44:05;94517.16;;;11.72;100.00
16451;BME280;12243;42.708;23.310;2024-03-02T12:46:32;94520.88;;;11.69;100.00
16451;BME280;12243;42.708;23.310;2024-03-02T12:49:07;94518.91;;;11.71;100.00
16451;BME280;12243;42.708;23.310;2024-03-02T12:51:35;94516.53;;;11.60;100.00
16451;BME280;12243;42.708;23.310;2024-03-02T12:54:03;94516.81;;;11.57;100.00
16451;BME280;12243;42.708;23.310;2024-03-02T12:56:31;94515.13;;;11.65;100.00
16451;BME280;12243;42.708;23.310;2024-03-02T12:58:58;94523.91;;;11.64;100.00
16451;BME280;12243;42.708;23.310;2024-03-02T13:01:26;94525.31;;;11.59;100.00
16451;BME280;12243;42.708;23.310;2024-03-02T13:03:54;94521.59;;;11.61;100.00
16451;BME280;12243;42.708;23.310;2024-03-02T13:06:23;94522.63;;;11.51;100.00
16451;BME280;12243;42.708;23.310;2024-03-02T13:08:49;94522.91;;;11.48;100.00
16451;BME280;12243;42.708;23.310;2024-03-02T13:11:16;94518.47;;;11.58;100.00
16451;BME280;12243;42.708;23.310;2024-03-02T13:13:43;94526.34;;;11.48;100.00
16451;BME280;12243;42.708;23.310;2024-03-02T13:16:11;94524.03;;;11.45;100.00
16451;BME280;12243;42.708;23.310;2024-03-02T13:18:40;94524.03;;;11.45;100.00
16451;BME280;12243;42.708;23.310;2024-03-02T13:21:07;94524.59;;;11.39;100.00
16451;BME280;12243;42.708;23.310;2024-03-02T13:23:34;94522.44;;;11.34;100.00
16451;BME280;12243;42.708;23.310;2024-03-02T13:26:01;94520.66;;;11.35;100.00
16451;BME280;12243;42.708;23.310;2024-03-02T13:28:28;94530.38;;;11.33;100.00
16451;BME280;12243;42.708;23.310;2024-03-02T13:30:55;94526.88;;;11.24;100.00
16451;BME280;12243;42.708;23.310;2024-03-02T13:33:22;94527.31;;;11.19;100.00
16451;BME280;12243;42.708;23.310;2024-03-02T13:35:50;94533.06;;;11.23;100.00
16451;BME280;12243;42.708;23.310;2024-03-02T13:38:18;94528.78;;;11.22;100.00
16451;BME280;12243;42.708;23.310;2024-03-02T13:40:46;94532.94;;;11.15;100.00
16451;BME280;12243;42.708;23.310;2024-03-02T13:43:13;94527.06;;;11.13;100.00
16451;BME280;12243;42.708;23.310;2024-03-02T13:45:41;94527.97;;;11.21;100.00
16451;BME280;12243;42.708;23.310;2024-03-02T13:48:08;94534.28;;;11.19;100.00
16451;BME280;12243;42.708;23.310;2024-03-02T13:50:35;94535.94;;;11.20;100.00
16451;BME280;12243;42.708;23.310;2024-03-02T13:53:03;94529.47;;;11.24;100.00
16451;BME280;12243;42.708;23.310;2024-03-02T13:55:31;94540.44;;;11.28;100.00
16451;BME280;12243;42.708;23.310;2024-03-02T13:57:58;94540.81;;;11.33;100.00
16451;BME280;12243;42.708;23.310;2024-03-02T14:00:26;94541.34;;;11.36;100.00
16451;BME280;12243;42.708;23.310;2024-03-02T14:02:52;94538.53;;;11.30;100.00
16451;BME280;12243;42.708;23.310;2024-03-02T14:05:19;94543.56;;;11.31;100.00
16451;BME280;12243;42.708;23.310;2024-03-02T14:07:46;94540.00;;;11.32;100.00
16451;BME280;12243;42.708;23.310;2024-03-02T14:10:14;94541.06;;;11.39;100.00
16451;BME280;12243;42.708;23.310;2024-03-02T14:12:42;94536.53;;;11.41;100.00
16451;BME280;12243;42.708;23.310;2024-03-02T14:15:08;94543.78;;;11.48;100.00
16451;BME280;12243;42.708;23.310;2024-03-02T14:17:35;94543.19;;;11.54;100.00
16451;BME280;12243;42.708;23.310;2024-03-02T14:20:02;94545.91;;;11.62;100.00
16451;BME280;12243;42.708;23.310;2024-03-02T14:22:30;94548.75;;;11.68;100.00
16451;BME280;12243;42.708;23.310;2024-03-02T14:24:57;94544.72;;;11.74;100.00
16451;BME280;12243;42.708;23.310;2024-03-02T14:27:25;94552.25;;;11.77;100.00
16451;BME280;12243;42.708;23.310;2024-03-02T14:29:52;94553.47;;;11.83;100.00
16451;BME280;12243;42.708;23.310;2024-03-02T14:32:19;94547.56;;;11.81;99.72
16451;BME280;12243;42.708;23.310;2024-03-02T14:34:46;94546.84;;;11.88;99.83
16451;BME280;12243;42.708;23.310;2024-03-02T14:37:14;94554.78;;;11.97;99.27
16451;BME280;12243;42.708;23.310;2024-03-02T14:39:41;94555.97;;;12.02;99.09
16451;BME280;12243;42.708;23.310;2024-03-02T14:42:08;94548.22;;;12.10;98.32
16451;BME280;12243;42.708;23.310;2024-03-02T14:44:36;94545.00;;;12.16;97.33
16451;BME280;12243;42.708;23.310;2024-03-02T14:47:03;94543.53;;;12.14;97.38
16451;BME280;12243;42.708;23.310;2024-03-02T14:49:30;94548.28;;;12.01;97.01
16451;BME280;12243;42.708;23.310;2024-03-02T14:51:59;94551.25;;;12.06;96.67
16451;BME280;12243;42.708;23.310;2024-03-02T14:54:26;94555.75;;;12.13;96.51
16451;BME280;12243;42.708;23.310;2024-03-02T14:56:53;94560.53;;;12.18;96.56
16451;BME280;12243;42.708;23.310;2024-03-02T14:59:19;94561.88;;;12.22;97.18
16451;BME280;12243;42.708;23.310;2024-03-02T15:01:48;94564.13;;;12.17;97.15
16451;BME280;12243;42.708;23.310;2024-03-02T15:04:15;94564.25;;;12.15;97.42
16451;BME280;12243;42.708;23.310;2024-03-02T15:06:44;94561.81;;;12.14;97.82
16451;BME280;12243;42.708;23.310;2024-03-02T15:09:11;94565.06;;;12.16;97.24
16451;BME280;12243;42.708;23.310;2024-03-02T15:11:38;94557.41;;;12.14;96.92
16451;BME280;12243;42.708;23.310;2024-03-02T15:14:05;94561.50;;;12.17;97.03
16451;BME280;12243;42.708;23.310;2024-03-02T15:16:32;94566.50;;;12.10;97.17
16451;BME280;12243;42.708;23.310;2024-03-02T15:19:01;94564.59;;;12.03;96.75
16451;BME280;12243;42.708;23.310;2024-03-02T15:21:28;94568.88;;;12.04;96.49
16451;BME280;12243;42.708;23.310;2024-03-02T15:23:55;94581.69;;;11.97;96.47
16451;BME280;12243;42.708;23.310;2024-03-02T15:26:21;94572.28;;;11.86;97.04
16451;BME280;12243;42.708;23.310;2024-03-02T15:28:48;94568.00;;;11.85;96.77
16451;BME280;12243;42.708;23.310;2024-03-02T15:31:15;94572.84;;;11.80;97.62
16451;BME280;12243;42.708;23.310;2024-03-02T15:33:42;94575.44;;;11.80;98.10
16451;BME280;12243;42.708;23.310;2024-03-02T15:36:11;94572.16;;;11.78;98.24
16451;BME280;12243;42.708;23.310;2024-03-02T15:38:37;94575.25;;;11.64;98.68
16451;BME280;12243;42.708;23.310;2024-03-02T15:41:04;94582.41;;;11.62;98.06
16451;BME280;12243;42.708;23.310;2024-03-02T15:43:31;94573.91;;;11.60;98.87
16451;BME280;12243;42.708;23.310;2024-03-02T15:46:01;94577.84;;;11.64;98.37
16451;BME280;12243;42.708;23.310;2024-03-02T15:48:28;94575.84;;;11.58;98.12
16451;BME280;12243;42.708;23.310;2024-03-02T15:50:55;94573.13;;;11.50;98.94
16451;BME280;12243;42.708;23.310;2024-03-02T15:53:24;94576.97;;;11.55;99.30
16451;BME280;12243;42.708;23.310;2024-03-02T15:55:51;94578.75;;;11.55;99.54
16451;BME280;12243;42.708;23.310;2024-03-02T15:58:18;94572.84;;;11.53;99.59
16451;BME280;12243;42.708;23.310;2024-03-02T16:00:45;94578.34;;;11.50;98.92
16451;BME280;12243;42.708;23.310;2024-03-02T16:03:12;94577.69;;;11.48;98.06
16451;BME280;12243;42.708;23.310;2024-03-02T16:05:39;94580.00;;;11.51;98.58
16451;BME280;12243;42.708;23.310;2024-03-02T16:08:06;94578.81;;;11.35;98.44
16451;BME280;12243;42.708;23.310;2024-03-02T16:10:34;94577.63;;;11.30;98.21
16451;BME280;12243;42.708;23.310;2024-03-02T16:13:01;94576.69;;;11.21;98.82
16451;BME280;12243;42.708;23.310;2024-03-02T16:15:28;94586.88;;;11.05;99.83
16451;BME280;12243;42.708;23.310;2024-03-02T16:17:55;94589.53;;;10.95;100.00
16451;BME280;12243;42.708;23.310;2024-03-02T16:20:23;94585.41;;;10.92;100.00
16451;BME280;12243;42.708;23.310;2024-03-02T16:22:50;94586.94;;;10.95;100.00
16451;BME280;12243;42.708;23.310;2024-03-02T16:25:17;94579.94;;;10.86;100.00
16451;BME280;12243;42.708;23.310;2024-03-02T16:27:45;94586.25;;;10.83;100.00
16451;BME280;12243;42.708;23.310;2024-03-02T16:30:12;94585.44;;;10.63;100.00
16451;BME280;12243;42.708;23.310;2024-03-02T16:32:39;94581.91;;;10.55;100.00
16451;BME280;12243;42.708;23.310;2024-03-02T16:35:07;94582.56;;;10.66;100.00
16451;BME280;12243;42.708;23.310;2024-03-02T16:37:34;94586.28;;;10.64;100.00
16451;BME280;12243;42.708;23.310;2024-03-02T16:40:01;94595.19;;;10.52;100.00
16451;BME280;12243;42.708;23.310;2024-03-02T16:42:28;94594.25;;;10.43;100.00
16451;BME280;12243;42.708;23.310;2024-03-02T16:44:56;94597.25;;;10.58;100.00
16451;BME280;12243;42.708;23.310;2024-03-02T16:47:23;94598.06;;;10.48;100.00
16451;BME280;12243;42.708;23.310;2024-03-02T16:49:51;94608.22;;;10.32;100.00
16451;BME280;12243;42.708;23.310;2024-03-02T16:52:18;94609.44;;;10.28;100.00
16451;BME280;12243;42.708;23.310;2024-03-02T16:54:48;94603.38;;;10.18;100.00
16451;BME280;12243;42.708;23.310;2024-03-02T16:57:15;94611.72;;;10.21;100.00
16451;BME280;12243;42.708;23.310;2024-03-02T16:59:43;94611.78;;;10.31;100.00
16451;BME280;12243;42.708;23.310;2024-03-02T17:02:12;94612.47;;;10.33;100.00
16451;BME280;12243;42.708;23.310;2024-03-02T17:04:39;94615.75;;;10.35;100.00
16451;BME280;12243;42.708;23.310;2024-03-02T17:07:06;94609.88;;;10.33;100.00
16451;BME280;12243;42.708;23.310;2024-03-02T17:09:33;94609.44;;;10.38;100.00
16451;BME280;12243;42.708;23.310;2024-03-02T17:11:59;94612.06;;;10.38;100.00
16451;BME280;12243;42.708;23.310;2024-03-02T17:14:26;94621.91;;;10.34;100.00
16451;BME280;12243;42.708;23.310;2024-03-02T17:16:53;94627.66;;;10.28;100.00
16451;BME280;12243;42.708;23.310;2024-03-02T17:19:21;94626.03;;;10.37;100.00
16451;BME280;12243;42.708;23.310;2024-03-02T17:21:48;94630.00;;;10.31;100.00
16451;BME280;12243;42.708;23.310;2024-03-02T17:24:15;94628.88;;;10.24;100.00
16451;BME280;12243;42.708;23.310;2024-03-02T17:26:42;94628.66;;;10.46;100.00
16451;BME280;12243;42.708;23.310;2024-03-02T17:29:09;94620.28;;;10.33;100.00
16451;BME280;12243;42.708;23.310;2024-03-02T17:31:36;94626.84;;;10.28;100.00
16451;BME280;12243;42.708;23.310;2024-03-02T17:34:03;94628.75;;;10.35;100.00
16451;BME280;12243;42.708;23.310;2024-03-02T17:36:31;94627.38;;;10.31;100.00
16451;BME280;12243;42.708;23.310;2024-03-02T17:38:58;94633.41;;;10.22;100.00
16451;BME280;12243;42.708;23.310;2024-03-02T17:41:25;94632.28;;;10.15;100.00
16451;BME280;12243;42.708;23.310;2024-03-02T17:43:52;94630.34;;;10.07;100.00
16451;BME280;12243;42.708;23.310;2024-03-02T17:46:19;94635.44;;;10.09;100.00
16451;BME280;12243;42.708;23.310;2024-03-02T17:48:46;94644.28;;;9.96;100.00
16451;BME280;12243;42.708;23.310;2024-03-02T17:51:13;94638.53;;;9.93;100.00
16451;BME280;12243;42.708;23.310;2024-03-02T17:53:42;94638.94;;;9.88;100.00
16451;BME280;12243;42.708;23.310;2024-03-02T17:56:10;94646.75;;;9.88;100.00
16451;BME280;12243;42.708;23.310;2024-03-02T17:58:37;94650.59;;;9.94;100.00
16451;BME280;12243;42.708;23.310;2024-03-02T18:01:04;94647.72;;;9.97;100.00
16451;BME280;12243;42.708;23.310;2024-03-02T18:03:31;94648.66;;;9.96;100.00
16451;BME280;12243;42.708;23.310;2024-03-02T18:05:57;94645.06;;;9.77;100.00
16451;BME280;12243;42.708;23.310;2024-03-02T18:08:24;94647.78;;;9.76;100.00
16451;BME280;12243;42.708;23.310;2024-03-02T18:10:52;94654.38;;;9.70;100.00
16451;BME280;12243;42.708;23.310;2024-03-02T18:13:20;94651.56;;;9.62;100.00
16451;BME280;12243;42.708;23.310;2024-03-02T18:15:47;94655.94;;;9.62;100.00
16451;BME280;12243;42.708;23.310;2024-03-02T18:18:14;94658.00;;;9.58;100.00
16451;BME280;12243;42.708;23.310;2024-03-02T18:20:41;94661.97;;;9.62;100.00